sensor_id;sensor_type;location;lat;lon;timestamp;P1;durP1;ratioP1;P2;durP2;ratioP2
74679;SDS011;63211;48.548;2.704;2022-12-18T00:00:03;4.10;;;1.88;;
74679;SDS011;63211;48.548;2.704;2022-12-18T00:02:33;4.35;;;2.00;;
74679;SDS011;63211;48.548;2.704;2022-12-18T00:04:59;3.00;;;1.65;;
74679;SDS011;63211;48.548;2.704;2022-12-18T00:07:26;3.60;;;2.00;;
74679;SDS011;63211;48.548;2.704;2022-12-18T00:09:53;4.40;;;1.95;;
74679;SDS011;63211;48.548;2.704;2022-12-18T00:12:19;3.03;;;1.48;;
74679;SDS011;63211;48.548;2.704;2022-12-18T00:14:46;3.72;;;1.70;;
74679;SDS011;63211;48.548;2.704;2022-12-18T00:17:12;3.53;;;1.80;;
74679;SDS011;63211;48.548;2.704;2022-12-18T00:19:40;2.95;;;1.52;;
74679;SDS011;63211;48.548;2.704;2022-12-18T00:22:07;2.72;;;1.60;;
74679;SDS011;63211;48.548;2.704;2022-12-18T00:24:34;3.63;;;1.58;;
74679;SDS011;63211;48.548;2.704;2022-12-18T00:27:00;4.22;;;1.85;;
74679;SDS011;63211;48.548;2.704;2022-12-18T00:29:27;2.88;;;1.60;;
74679;SDS011;63211;48.548;2.704;2022-12-18T00:31:53;4.55;;;2.28;;
74679;SDS011;63211;48.548;2.704;2022-12-18T00:34:20;3.17;;;1.50;;
74679;SDS011;63211;48.548;2.704;2022-12-18T00:36:48;4.07;;;2.20;;
74679;SDS011;63211;48.548;2.704;2022-12-18T00:39:15;5.78;;;2.30;;
74679;SDS011;63211;48.548;2.704;2022-12-18T00:41:41;5.53;;;2.13;;
74679;SDS011;63211;48.548;2.704;2022-12-18T00:44:25;4.20;;;2.33;;
74679;SDS011;63211;48.548;2.704;2022-12-18T00:46:52;3.22;;;2.00;;
74679;SDS011;63211;48.548;2.704;2022-12-18T00:49:19;4.20;;;2.05;;
74679;SDS011;63211;48.548;2.704;2022-12-18T00:51:46;4.90;;;2.60;;
74679;SDS011;63211;48.548;2.704;2022-12-18T00:54:14;4.20;;;2.03;;
74679;SDS011;63211;48.548;2.704;2022-12-18T00:56:41;4.70;;;2.25;;
74679;SDS011;63211;48.548;2.704;2022-12-18T00:59:08;4.80;;;2.35;;
74679;SDS011;63211;48.548;2.704;2022-12-18T01:01:35;4.18;;;2.35;;
74679;SDS011;63211;48.548;2.704;2022-12-18T01:04:02;4.72;;;2.40;;
74679;SDS011;63211;48.548;2.704;2022-12-18T01:06:29;5.25;;;2.20;;
74679;SDS011;63211;48.548;2.704;2022-12-18T01:08:56;4.65;;;2.67;;
74679;SDS011;63211;48.548;2.704;2022-12-18T01:11:25;5.45;;;2.40;;
74679;SDS011;63211;48.548;2.704;2022-12-18T01:13:51;5.10;;;2.40;;
74679;SDS011;63211;48.548;2.704;2022-12-18T01:16:19;5.32;;;2.80;;
74679;SDS011;63211;48.548;2.704;2022-12-18T01:18:46;5.43;;;3.03;;
74679;SDS011;63211;48.548;2.704;2022-12-18T01:21:13;6.20;;;2.83;;
74679;SDS011;63211;48.548;2.704;2022-12-18T01:23:45;5.18;;;3.42;;
74679;SDS011;63211;48.548;2.704;2022-12-18T01:26:12;5.80;;;3.08;;
74679;SDS011;63211;48.548;2.704;2022-12-18T01:28:42;5.43;;;2.85;;
74679;SDS011;63211;48.548;2.704;2022-12-18T01:31:14;5.55;;;3.10;;
74679;SDS011;63211;48.548;2.704;2022-12-18T01:33:43;6.95;;;3.38;;
74679;SDS011;63211;48.548;2.704;2022-12-18T01:36:14;6.57;;;3.65;;
74679;SDS011;63211;48.548;2.704;2022-12-18T01:38:42;7.10;;;3.50;;
74679;SDS011;63211;48.548;2.704;2022-12-18T01:41:09;6.22;;;3.28;;
74679;SDS011;63211;48.548;2.704;2022-12-18T01:43:48;6.22;;;3.47;;
74679;SDS011;63211;48.548;2.704;2022-12-18T01:46:17;5.88;;;2.72;;
74679;SDS011;63211;48.548;2.704;2022-12-18T01:48:46;5.85;;;3.03;;
74679;SDS011;63211;48.548;2.704;2022-12-18T01:51:15;6.68;;;3.20;;
74679;SDS011;63211;48.548;2.704;2022-12-18T01:53:43;6.93;;;2.45;;
74679;SDS011;63211;48.548;2.704;2022-12-18T01:56:12;9.85;;;3.63;;
74679;SDS011;63211;48.548;2.704;2022-12-18T01:58:42;5.20;;;2.58;;
74679;SDS011;63211;48.548;2.704;2022-12-18T02:01:16;5.28;;;2.75;;
74679;SDS011;63211;48.548;2.704;2022-12-18T02:03:44;5.72;;;3.05;;
74679;SDS011;63211;48.548;2.704;2022-12-18T02:06:12;4.60;;;2.55;;
74679;SDS011;63211;48.548;2.704;2022-12-18T02:08:46;5.97;;;2.92;;
74679;SDS011;63211;48.548;2.704;2022-12-18T02:11:22;5.43;;;2.60;;
74679;SDS011;63211;48.548;2.704;2022-12-18T02:14:00;4.13;;;2.38;;
74679;SDS011;63211;48.548;2.704;2022-12-18T02:16:36;4.68;;;2.65;;
74679;SDS011;63211;48.548;2.704;2022-12-18T02:19:14;6.95;;;2.63;;
74679;SDS011;63211;48.548;2.704;2022-12-18T02:21:54;5.93;;;3.03;;
74679;SDS011;63211;48.548;2.704;2022-12-18T02:24:33;3.00;;;1.98;;
74679;SDS011;63211;48.548;2.704;2022-12-18T02:27:07;3.55;;;2.08;;
74679;SDS011;63211;48.548;2.704;2022-12-18T02:32:06;5.10;;;2.20;;
74679;SDS011;63211;48.548;2.704;2022-12-18T02:34:38;3.78;;;2.10;;
74679;SDS011;63211;48.548;2.704;2022-12-18T02:37:07;3.38;;;2.10;;
74679;SDS011;63211;48.548;2.704;2022-12-18T02:39:37;5.97;;;2.67;;
74679;SDS011;63211;48.548;2.704;2022-12-18T02:42:07;4.20;;;2.28;;
74679;SDS011;63211;48.548;2.704;2022-12-18T02:44:35;4.30;;;1.85;;
74679;SDS011;63211;48.548;2.704;2022-12-18T02:47:08;4.28;;;2.03;;
74679;SDS011;63211;48.548;2.704;2022-12-18T02:49:40;3.75;;;1.77;;
74679;SDS011;63211;48.548;2.704;2022-12-18T02:52:16;3.65;;;1.88;;
74679;SDS011;63211;48.548;2.704;2022-12-18T02:54:54;5.03;;;2.45;;
74679;SDS011;63211;48.548;2.704;2022-12-18T02:57:30;4.28;;;2.28;;
74679;SDS011;63211;48.548;2.704;2022-12-18T03:00:02;4.25;;;1.85;;
74679;SDS011;63211;48.548;2.704;2022-12-18T03:02:34;3.97;;;2.25;;
74679;SDS011;63211;48.548;2.704;2022-12-18T03:05:10;4.07;;;1.77;;
74679;SDS011;63211;48.548;2.704;2022-12-18T03:07:42;4.00;;;1.83;;
74679;SDS011;63211;48.548;2.704;2022-12-18T03:10:16;3.47;;;2.03;;
74679;SDS011;63211;48.548;2.704;2022-12-18T03:12:50;5.03;;;1.95;;
74679;SDS011;63211;48.548;2.704;2022-12-18T03:15:20;3.45;;;1.90;;
74679;SDS011;63211;48.548;2.704;2022-12-18T03:17:52;3.55;;;1.92;;
74679;SDS011;63211;48.548;2.704;2022-12-18T03:20:23;4.18;;;1.92;;
74679;SDS011;63211;48.548;2.704;2022-12-18T03:22:53;3.15;;;1.75;;
74679;SDS011;63211;48.548;2.704;2022-12-18T03:25:26;3.53;;;1.80;;
74679;SDS011;63211;48.548;2.704;2022-12-18T03:27:56;4.22;;;1.92;;
74679;SDS011;63211;48.548;2.704;2022-12-18T03:30:25;3.15;;;1.48;;
74679;SDS011;63211;48.548;2.704;2022-12-18T03:32:58;2.83;;;1.60;;
74679;SDS011;63211;48.548;2.704;2022-12-18T03:35:29;3.55;;;1.60;;
74679;SDS011;63211;48.548;2.704;2022-12-18T03:37:58;3.00;;;1.70;;
74679;SDS011;63211;48.548;2.704;2022-12-18T03:40:26;3.35;;;1.52;;
74679;SDS011;63211;48.548;2.704;2022-12-18T03:43:03;4.18;;;2.25;;
74679;SDS011;63211;48.548;2.704;2022-12-18T03:45:36;3.22;;;1.63;;
74679;SDS011;63211;48.548;2.704;2022-12-18T03:48:07;3.92;;;2.10;;
74679;SDS011;63211;48.548;2.704;2022-12-18T03:50:42;3.63;;;1.73;;
74679;SDS011;63211;48.548;2.704;2022-12-18T03:53:16;3.17;;;1.80;;
74679;SDS011;63211;48.548;2.704;2022-12-18T03:55:50;3.10;;;1.48;;
74679;SDS011;63211;48.548;2.704;2022-12-18T03:58:20;3.45;;;1.70;;
74679;SDS011;63211;48.548;2.704;2022-12-18T04:00:51;2.83;;;1.90;;
74679;SDS011;63211;48.548;2.704;2022-12-18T04:03:21;3.28;;;1.60;;
74679;SDS011;63211;48.548;2.704;2022-12-18T04:05:50;3.85;;;1.95;;
74679;SDS011;63211;48.548;2.704;2022-12-18T04:08:18;3.45;;;1.60;;
74679;SDS011;63211;48.548;2.704;2022-12-18T04:10:46;2.97;;;1.60;;
74679;SDS011;63211;48.548;2.704;2022-12-18T04:13:22;3.28;;;1.50;;
74679;SDS011;63211;48.548;2.704;2022-12-18T04:15:50;3.85;;;1.58;;
74679;SDS011;63211;48.548;2.704;2022-12-18T04:18:17;2.30;;;1.20;;
74679;SDS011;63211;48.548;2.704;2022-12-18T04:20:44;3.03;;;1.50;;
74679;SDS011;63211;48.548;2.704;2022-12-18T04:23:10;2.85;;;1.40;;
74679;SDS011;63211;48.548;2.704;2022-12-18T04:25:37;2.80;;;1.27;;
74679;SDS011;63211;48.548;2.704;2022-12-18T04:28:03;2.92;;;1.73;;
74679;SDS011;63211;48.548;2.704;2022-12-18T04:30:31;2.25;;;1.05;;
74679;SDS011;63211;48.548;2.704;2022-12-18T04:32:58;3.10;;;1.50;;
74679;SDS011;63211;48.548;2.704;2022-12-18T04:35:25;3.08;;;1.65;;
74679;SDS011;63211;48.548;2.704;2022-12-18T04:37:52;3.35;;;1.45;;
74679;SDS011;63211;48.548;2.704;2022-12-18T04:40:18;3.85;;;1.55;;
74679;SDS011;63211;48.548;2.704;2022-12-18T04:42:45;3.63;;;1.50;;
74679;SDS011;63211;48.548;2.704;2022-12-18T04:45:12;3.50;;;1.50;;
74679;SDS011;63211;48.548;2.704;2022-12-18T04:47:40;2.33;;;1.35;;
74679;SDS011;63211;48.548;2.704;2022-12-18T04:50:07;2.08;;;1.38;;
74679;SDS011;63211;48.548;2.704;2022-12-18T04:52:34;2.40;;;1.40;;
74679;SDS011;63211;48.548;2.704;2022-12-18T04:55:00;1.90;;;1.25;;
74679;SDS011;63211;48.548;2.704;2022-12-18T04:57:27;3.15;;;1.30;;
74679;SDS011;63211;48.548;2.704;2022-12-18T04:59:53;2.65;;;1.30;;
74679;SDS011;63211;48.548;2.704;2022-12-18T05:02:20;3.22;;;1.30;;
74679;SDS011;63211;48.548;2.704;2022-12-18T05:04:48;2.58;;;1.40;;
74679;SDS011;63211;48.548;2.704;2022-12-18T05:07:15;2.42;;;1.50;;
74679;SDS011;63211;48.548;2.704;2022-12-18T05:09:41;2.17;;;1.40;;
74679;SDS011;63211;48.548;2.704;2022-12-18T05:12:08;2.83;;;1.30;;
74679;SDS011;63211;48.548;2.704;2022-12-18T05:14:35;1.52;;;0.98;;
74679;SDS011;63211;48.548;2.704;2022-12-18T05:17:01;2.67;;;1.13;;
74679;SDS011;63211;48.548;2.704;2022-12-18T05:19:28;2.42;;;1.10;;
74679;SDS011;63211;48.548;2.704;2022-12-18T05:21:56;4.65;;;1.38;;
74679;SDS011;63211;48.548;2.704;2022-12-18T05:24:23;2.90;;;1.20;;
74679;SDS011;63211;48.548;2.704;2022-12-18T05:26:49;2.20;;;1.13;;
74679;SDS011;63211;48.548;2.704;2022-12-18T05:29:16;2.53;;;1.30;;
74679;SDS011;63211;48.548;2.704;2022-12-18T05:31:43;2.53;;;1.20;;
74679;SDS011;63211;48.548;2.704;2022-12-18T05:34:09;2.13;;;1.45;;
74679;SDS011;63211;48.548;2.704;2022-12-18T05:36:36;2.83;;;1.05;;
74679;SDS011;63211;48.548;2.704;2022-12-18T05:39:04;2.05;;;1.10;;
74679;SDS011;63211;48.548;2.704;2022-12-18T05:41:31;2.83;;;1.30;;
74679;SDS011;63211;48.548;2.704;2022-12-18T05:43:58;3.22;;;1.60;;
74679;SDS011;63211;48.548;2.704;2022-12-18T05:46:25;2.25;;;1.27;;
74679;SDS011;63211;48.548;2.704;2022-12-18T05:48:52;1.88;;;1.10;;
74679;SDS011;63211;48.548;2.704;2022-12-18T05:51:20;2.22;;;1.02;;
74679;SDS011;63211;48.548;2.704;2022-12-18T05:53:48;2.25;;;0.90;;
74679;SDS011;63211;48.548;2.704;2022-12-18T05:56:17;2.00;;;1.17;;
74679;SDS011;63211;48.548;2.704;2022-12-18T06:01:13;4.07;;;1.35;;
74679;SDS011;63211;48.548;2.704;2022-12-18T06:03:42;2.15;;;1.23;;
74679;SDS011;63211;48.548;2.704;2022-12-18T06:06:13;2.08;;;1.08;;
74679;SDS011;63211;48.548;2.704;2022-12-18T06:08:40;3.40;;;1.13;;
74679;SDS011;63211;48.548;2.704;2022-12-18T06:11:07;2.53;;;1.30;;
74679;SDS011;63211;48.548;2.704;2022-12-18T06:13:35;2.13;;;1.30;;
74679;SDS011;63211;48.548;2.704;2022-12-18T06:16:03;2.40;;;1.00;;
74679;SDS011;63211;48.548;2.704;2022-12-18T06:18:30;2.70;;;1.00;;
74679;SDS011;63211;48.548;2.704;2022-12-18T06:20:56;3.45;;;1.23;;
74679;SDS011;63211;48.548;2.704;2022-12-18T06:23:24;2.22;;;1.20;;
74679;SDS011;63211;48.548;2.704;2022-12-18T06:25:51;2.10;;;1.02;;
74679;SDS011;63211;48.548;2.704;2022-12-18T06:28:18;2.25;;;1.20;;
74679;SDS011;63211;48.548;2.704;2022-12-18T06:30:47;3.28;;;1.27;;
74679;SDS011;63211;48.548;2.704;2022-12-18T06:33:14;2.00;;;0.80;;
74679;SDS011;63211;48.548;2.704;2022-12-18T06:35:41;1.83;;;1.05;;
74679;SDS011;63211;48.548;2.704;2022-12-18T06:38:08;2.83;;;1.30;;
74679;SDS011;63211;48.548;2.704;2022-12-18T06:40:36;2.28;;;1.30;;
74679;SDS011;63211;48.548;2.704;2022-12-18T06:43:03;2.72;;;1.40;;
74679;SDS011;63211;48.548;2.704;2022-12-18T06:45:30;2.53;;;1.08;;
74679;SDS011;63211;48.548;2.704;2022-12-18T06:47:58;2.20;;;1.20;;
74679;SDS011;63211;48.548;2.704;2022-12-18T06:50:24;2.22;;;1.00;;
74679;SDS011;63211;48.548;2.704;2022-12-18T06:52:51;2.75;;;1.35;;
74679;SDS011;63211;48.548;2.704;2022-12-18T06:55:18;2.67;;;1.30;;
74679;SDS011;63211;48.548;2.704;2022-12-18T06:57:45;7.38;;;1.73;;
74679;SDS011;63211;48.548;2.704;2022-12-18T07:00:11;2.67;;;1.27;;
74679;SDS011;63211;48.548;2.704;2022-12-18T07:02:39;1.92;;;1.13;;
74679;SDS011;63211;48.548;2.704;2022-12-18T07:05:07;3.53;;;1.27;;
74679;SDS011;63211;48.548;2.704;2022-12-18T07:07:34;2.33;;;1.27;;
74679;SDS011;63211;48.548;2.704;2022-12-18T07:10:01;2.55;;;1.10;;
74679;SDS011;63211;48.548;2.704;2022-12-18T07:12:28;4.40;;;1.42;;
74679;SDS011;63211;48.548;2.704;2022-12-18T07:14:55;1.35;;;0.93;;
74679;SDS011;63211;48.548;2.704;2022-12-18T07:17:21;2.08;;;1.25;;
74679;SDS011;63211;48.548;2.704;2022-12-18T07:19:48;3.08;;;1.40;;
74679;SDS011;63211;48.548;2.704;2022-12-18T07:22:16;2.38;;;1.20;;
74679;SDS011;63211;48.548;2.704;2022-12-18T07:24:42;2.28;;;1.20;;
74679;SDS011;63211;48.548;2.704;2022-12-18T07:27:09;2.38;;;1.60;;
74679;SDS011;63211;48.548;2.704;2022-12-18T07:29:36;2.55;;;1.02;;
74679;SDS011;63211;48.548;2.704;2022-12-18T07:32:02;1.60;;;1.00;;
74679;SDS011;63211;48.548;2.704;2022-12-18T07:34:29;2.10;;;1.10;;
74679;SDS011;63211;48.548;2.704;2022-12-18T07:36:56;2.47;;;1.50;;
74679;SDS011;63211;48.548;2.704;2022-12-18T07:39:24;3.25;;;1.20;;
74679;SDS011;63211;48.548;2.704;2022-12-18T07:41:50;2.30;;;1.20;;
74679;SDS011;63211;48.548;2.704;2022-12-18T07:44:31;2.75;;;1.20;;
74679;SDS011;63211;48.548;2.704;2022-12-18T07:46:58;1.92;;;1.02;;
74679;SDS011;63211;48.548;2.704;2022-12-18T07:49:24;1.77;;;1.02;;
74679;SDS011;63211;48.548;2.704;2022-12-18T07:51:51;2.78;;;1.40;;
74679;SDS011;63211;48.548;2.704;2022-12-18T07:54:21;2.40;;;1.38;;
74679;SDS011;63211;48.548;2.704;2022-12-18T07:56:49;1.95;;;1.25;;
74679;SDS011;63211;48.548;2.704;2022-12-18T07:59:16;2.75;;;1.20;;
74679;SDS011;63211;48.548;2.704;2022-12-18T08:01:42;1.73;;;1.13;;
74679;SDS011;63211;48.548;2.704;2022-12-18T08:04:09;2.65;;;1.27;;
74679;SDS011;63211;48.548;2.704;2022-12-18T08:06:36;2.22;;;1.20;;
74679;SDS011;63211;48.548;2.704;2022-12-18T08:09:02;3.65;;;1.80;;
74679;SDS011;63211;48.548;2.704;2022-12-18T08:11:29;3.67;;;1.55;;
74679;SDS011;63211;48.548;2.704;2022-12-18T08:13:57;3.53;;;1.50;;
74679;SDS011;63211;48.548;2.704;2022-12-18T08:16:24;3.33;;;1.55;;
74679;SDS011;63211;48.548;2.704;2022-12-18T08:18:51;2.63;;;1.60;;
74679;SDS011;63211;48.548;2.704;2022-12-18T08:21:20;2.28;;;1.25;;
74679;SDS011;63211;48.548;2.704;2022-12-18T08:23:49;6.55;;;1.27;;
74679;SDS011;63211;48.548;2.704;2022-12-18T08:26:16;5.22;;;1.70;;
74679;SDS011;63211;48.548;2.704;2022-12-18T08:28:43;2.47;;;1.30;;
74679;SDS011;63211;48.548;2.704;2022-12-18T08:31:11;4.53;;;1.80;;
74679;SDS011;63211;48.548;2.704;2022-12-18T08:33:38;4.90;;;2.10;;
74679;SDS011;63211;48.548;2.704;2022-12-18T08:36:05;4.65;;;1.88;;
74679;SDS011;63211;48.548;2.704;2022-12-18T08:38:32;4.35;;;2.25;;
74679;SDS011;63211;48.548;2.704;2022-12-18T08:40:59;4.32;;;1.90;;
74679;SDS011;63211;48.548;2.704;2022-12-18T08:43:26;3.17;;;1.80;;
74679;SDS011;63211;48.548;2.704;2022-12-18T08:46:20;5.10;;;1.90;;
74679;SDS011;63211;48.548;2.704;2022-12-18T08:48:50;3.22;;;1.83;;
74679;SDS011;63211;48.548;2.704;2022-12-18T08:51:17;3.40;;;1.65;;
74679;SDS011;63211;48.548;2.704;2022-12-18T08:53:44;3.25;;;1.90;;
74679;SDS011;63211;48.548;2.704;2022-12-18T08:56:11;4.97;;;1.75;;
74679;SDS011;63211;48.548;2.704;2022-12-18T08:58:39;4.18;;;1.75;;
74679;SDS011;63211;48.548;2.704;2022-12-18T09:01:06;3.28;;;1.70;;
74679;SDS011;63211;48.548;2.704;2022-12-18T09:03:36;4.65;;;1.60;;
74679;SDS011;63211;48.548;2.704;2022-12-18T09:06:03;4.53;;;1.60;;
74679;SDS011;63211;48.548;2.704;2022-12-18T09:08:39;2.80;;;1.48;;
74679;SDS011;63211;48.548;2.704;2022-12-18T09:11:09;2.67;;;1.70;;
74679;SDS011;63211;48.548;2.704;2022-12-18T09:13:39;3.53;;;1.50;;
74679;SDS011;63211;48.548;2.704;2022-12-18T09:16:06;3.08;;;1.50;;
74679;SDS011;63211;48.548;2.704;2022-12-18T09:18:32;5.38;;;1.98;;
74679;SDS011;63211;48.548;2.704;2022-12-18T09:21:06;3.40;;;1.63;;
74679;SDS011;63211;48.548;2.704;2022-12-18T09:23:33;3.35;;;1.85;;
74679;SDS011;63211;48.548;2.704;2022-12-18T09:26:00;2.17;;;1.40;;
74679;SDS011;63211;48.548;2.704;2022-12-18T09:28:27;5.00;;;2.03;;
74679;SDS011;63211;48.548;2.704;2022-12-18T09:30:55;3.08;;;1.85;;
74679;SDS011;63211;48.548;2.704;2022-12-18T09:33:22;3.20;;;1.58;;
74679;SDS011;63211;48.548;2.704;2022-12-18T09:35:49;3.17;;;1.17;;
74679;SDS011;63211;48.548;2.704;2022-12-18T09:38:17;3.25;;;1.83;;
74679;SDS011;63211;48.548;2.704;2022-12-18T09:40:46;2.80;;;1.30;;
74679;SDS011;63211;48.548;2.704;2022-12-18T09:43:17;3.05;;;1.65;;
74679;SDS011;63211;48.548;2.704;2022-12-18T09:45:47;3.13;;;1.55;;
74679;SDS011;63211;48.548;2.704;2022-12-18T09:48:18;2.95;;;1.40;;
74679;SDS011;63211;48.548;2.704;2022-12-18T09:50:49;3.88;;;1.60;;
74679;SDS011;63211;48.548;2.704;2022-12-18T09:53:20;3.67;;;1.70;;
74679;SDS011;63211;48.548;2.704;2022-12-18T09:55:51;3.13;;;1.60;;
74679;SDS011;63211;48.548;2.704;2022-12-18T09:58:20;3.40;;;2.00;;
74679;SDS011;63211;48.548;2.704;2022-12-18T10:00:53;2.70;;;1.40;;
74679;SDS011;63211;48.548;2.704;2022-12-18T10:03:19;3.35;;;1.45;;
74679;SDS011;63211;48.548;2.704;2022-12-18T10:05:49;2.38;;;1.33;;
74679;SDS011;63211;48.548;2.704;2022-12-18T10:08:24;2.88;;;1.55;;
74679;SDS011;63211;48.548;2.704;2022-12-18T10:10:56;3.60;;;1.60;;
74679;SDS011;63211;48.548;2.704;2022-12-18T10:13:31;3.20;;;1.60;;
74679;SDS011;63211;48.548;2.704;2022-12-18T10:16:08;3.33;;;1.55;;
74679;SDS011;63211;48.548;2.704;2022-12-18T10:18:54;2.13;;;1.27;;
74679;SDS011;63211;48.548;2.704;2022-12-18T10:21:34;2.50;;;1.50;;
74679;SDS011;63211;48.548;2.704;2022-12-18T10:24:12;2.63;;;1.52;;
74679;SDS011;63211;48.548;2.704;2022-12-18T10:26:48;2.90;;;1.42;;
74679;SDS011;63211;48.548;2.704;2022-12-18T10:29:16;2.78;;;1.35;;
74679;SDS011;63211;48.548;2.704;2022-12-18T10:31:43;3.65;;;1.50;;
74679;SDS011;63211;48.548;2.704;2022-12-18T10:34:09;3.63;;;1.70;;
74679;SDS011;63211;48.548;2.704;2022-12-18T10:36:36;2.90;;;1.30;;
74679;SDS011;63211;48.548;2.704;2022-12-18T10:39:15;2.55;;;1.50;;
74679;SDS011;63211;48.548;2.704;2022-12-18T10:41:42;3.42;;;1.52;;
74679;SDS011;63211;48.548;2.704;2022-12-18T10:44:10;3.08;;;1.70;;
74679;SDS011;63211;48.548;2.704;2022-12-18T10:46:41;2.42;;;1.42;;
74679;SDS011;63211;48.548;2.704;2022-12-18T10:49:18;2.92;;;1.52;;
74679;SDS011;63211;48.548;2.704;2022-12-18T10:51:46;2.47;;;1.48;;
74679;SDS011;63211;48.548;2.704;2022-12-18T10:54:14;2.40;;;1.17;;
74679;SDS011;63211;48.548;2.704;2022-12-18T10:56:43;3.45;;;1.48;;
74679;SDS011;63211;48.548;2.704;2022-12-18T10:59:11;2.50;;;1.15;;
74679;SDS011;63211;48.548;2.704;2022-12-18T11:01:46;3.40;;;1.35;;
74679;SDS011;63211;48.548;2.704;2022-12-18T11:04:16;2.35;;;1.20;;
74679;SDS011;63211;48.548;2.704;2022-12-18T11:06:55;2.90;;;1.60;;
74679;SDS011;63211;48.548;2.704;2022-12-18T11:09:28;3.13;;;1.67;;
74679;SDS011;63211;48.548;2.704;2022-12-18T11:11:57;2.47;;;1.33;;
74679;SDS011;63211;48.548;2.704;2022-12-18T11:14:26;3.08;;;1.45;;
74679;SDS011;63211;48.548;2.704;2022-12-18T11:16:54;3.83;;;1.92;;
74679;SDS011;63211;48.548;2.704;2022-12-18T11:19:28;3.58;;;1.63;;
74679;SDS011;63211;48.548;2.704;2022-12-18T11:21:59;2.75;;;1.60;;
74679;SDS011;63211;48.548;2.704;2022-12-18T11:24:28;3.17;;;1.45;;
74679;SDS011;63211;48.548;2.704;2022-12-18T11:26:57;4.05;;;1.15;;
74679;SDS011;63211;48.548;2.704;2022-12-18T11:29:28;2.70;;;1.45;;
74679;SDS011;63211;48.548;2.704;2022-12-18T11:32:13;2.97;;;1.35;;
74679;SDS011;63211;48.548;2.704;2022-12-18T11:34:51;3.58;;;1.40;;
74679;SDS011;63211;48.548;2.704;2022-12-18T11:37:24;2.63;;;1.17;;
74679;SDS011;63211;48.548;2.704;2022-12-18T11:39:54;3.03;;;1.55;;
74679;SDS011;63211;48.548;2.704;2022-12-18T11:42:27;2.30;;;1.20;;
74679;SDS011;63211;48.548;2.704;2022-12-18T11:44:59;3.42;;;1.23;;
74679;SDS011;63211;48.548;2.704;2022-12-18T11:47:34;3.08;;;1.42;;
74679;SDS011;63211;48.548;2.704;2022-12-18T11:50:16;3.72;;;1.48;;
74679;SDS011;63211;48.548;2.704;2022-12-18T11:52:45;2.95;;;1.48;;
74679;SDS011;63211;48.548;2.704;2022-12-18T11:55:13;2.28;;;1.20;;
74679;SDS011;63211;48.548;2.704;2022-12-18T11:57:44;3.30;;;1.20;;
74679;SDS011;63211;48.548;2.704;2022-12-18T12:00:18;3.45;;;1.42;;
74679;SDS011;63211;48.548;2.704;2022-12-18T12:03:05;2.38;;;1.10;;
74679;SDS011;63211;48.548;2.704;2022-12-18T12:05:44;2.63;;;1.30;;
74679;SDS011;63211;48.548;2.704;2022-12-18T12:08:23;1.67;;;1.10;;
74679;SDS011;63211;48.548;2.704;2022-12-18T12:11:00;2.95;;;1.10;;
74679;SDS011;63211;48.548;2.704;2022-12-18T12:13:40;3.78;;;1.45;;
74679;SDS011;63211;48.548;2.704;2022-12-18T12:16:15;2.75;;;1.30;;
74679;SDS011;63211;48.548;2.704;2022-12-18T12:18:50;2.83;;;1.30;;
74679;SDS011;63211;48.548;2.704;2022-12-18T12:21:34;2.58;;;1.23;;
74679;SDS011;63211;48.548;2.704;2022-12-18T12:24:10;2.78;;;1.38;;
74679;SDS011;63211;48.548;2.704;2022-12-18T12:26:48;2.38;;;1.05;;
74679;SDS011;63211;48.548;2.704;2022-12-18T12:29:26;2.72;;;1.40;;
74679;SDS011;63211;48.548;2.704;2022-12-18T12:32:05;2.40;;;1.20;;
74679;SDS011;63211;48.548;2.704;2022-12-18T12:34:44;2.50;;;1.30;;
74679;SDS011;63211;48.548;2.704;2022-12-18T12:37:23;2.13;;;1.20;;
74679;SDS011;63211;48.548;2.704;2022-12-18T12:40:00;2.17;;;1.33;;
74679;SDS011;63211;48.548;2.704;2022-12-18T12:42:31;2.65;;;1.20;;
74679;SDS011;63211;48.548;2.704;2022-12-18T12:45:20;2.80;;;1.10;;
74679;SDS011;63211;48.548;2.704;2022-12-18T12:47:52;3.08;;;1.40;;
74679;SDS011;63211;48.548;2.704;2022-12-18T12:50:20;2.38;;;1.20;;
74679;SDS011;63211;48.548;2.704;2022-12-18T12:52:49;2.47;;;1.15;;
74679;SDS011;63211;48.548;2.704;2022-12-18T12:55:19;2.47;;;1.40;;
74679;SDS011;63211;48.548;2.704;2022-12-18T12:57:51;2.28;;;0.93;;
74679;SDS011;63211;48.548;2.704;2022-12-18T13:00:25;2.25;;;1.20;;
74679;SDS011;63211;48.548;2.704;2022-12-18T13:02:59;2.30;;;1.10;;
74679;SDS011;63211;48.548;2.704;2022-12-18T13:05:34;2.63;;;1.30;;
74679;SDS011;63211;48.548;2.704;2022-12-18T13:08:10;1.60;;;0.85;;
74679;SDS011;63211;48.548;2.704;2022-12-18T13:10:47;2.42;;;1.38;;
74679;SDS011;63211;48.548;2.704;2022-12-18T13:13:15;3.42;;;1.10;;
74679;SDS011;63211;48.548;2.704;2022-12-18T13:15:42;2.63;;;1.70;;
74679;SDS011;63211;48.548;2.704;2022-12-18T13:18:15;2.67;;;1.48;;
74679;SDS011;63211;48.548;2.704;2022-12-18T13:20:44;2.53;;;1.10;;
74679;SDS011;63211;48.548;2.704;2022-12-18T13:23:19;2.33;;;1.00;;
74679;SDS011;63211;48.548;2.704;2022-12-18T13:25:52;3.45;;;1.20;;
74679;SDS011;63211;48.548;2.704;2022-12-18T13:28:21;3.03;;;1.40;;
74679;SDS011;63211;48.548;2.704;2022-12-18T13:30:51;2.45;;;1.10;;
74679;SDS011;63211;48.548;2.704;2022-12-18T13:39:15;1.90;;;0.98;;
74679;SDS011;63211;48.548;2.704;2022-12-18T13:41:50;2.00;;;1.10;;
74679;SDS011;63211;48.548;2.704;2022-12-18T13:44:28;3.70;;;1.48;;
74679;SDS011;63211;48.548;2.704;2022-12-18T13:46:58;2.38;;;1.20;;
74679;SDS011;63211;48.548;2.704;2022-12-18T13:49:26;2.78;;;1.35;;
74679;SDS011;63211;48.548;2.704;2022-12-18T13:52:01;3.40;;;1.05;;
74679;SDS011;63211;48.548;2.704;2022-12-18T13:54:30;1.92;;;0.90;;
74679;SDS011;63211;48.548;2.704;2022-12-18T13:57:00;2.03;;;1.02;;
74679;SDS011;63211;48.548;2.704;2022-12-18T13:59:34;2.70;;;1.27;;
74679;SDS011;63211;48.548;2.704;2022-12-18T14:02:05;2.10;;;1.00;;
74679;SDS011;63211;48.548;2.704;2022-12-18T14:04:39;1.75;;;1.05;;
74679;SDS011;63211;48.548;2.704;2022-12-18T14:07:07;1.63;;;0.98;;
74679;SDS011;63211;48.548;2.704;2022-12-18T14:09:40;2.42;;;1.10;;
74679;SDS011;63211;48.548;2.704;2022-12-18T14:12:14;2.00;;;1.13;;
74679;SDS011;63211;48.548;2.704;2022-12-18T14:15:00;2.72;;;1.27;;
74679;SDS011;63211;48.548;2.704;2022-12-18T14:17:28;1.52;;;0.90;;
74679;SDS011;63211;48.548;2.704;2022-12-18T14:19:54;2.10;;;1.23;;
74679;SDS011;63211;48.548;2.704;2022-12-18T14:22:23;4.03;;;1.48;;
74679;SDS011;63211;48.548;2.704;2022-12-18T14:25:04;2.67;;;1.25;;
74679;SDS011;63211;48.548;2.704;2022-12-18T14:27:41;3.40;;;1.20;;
74679;SDS011;63211;48.548;2.704;2022-12-18T14:30:27;2.72;;;1.30;;
74679;SDS011;63211;48.548;2.704;2022-12-18T14:33:02;3.65;;;1.33;;
74679;SDS011;63211;48.548;2.704;2022-12-18T14:35:29;4.13;;;1.38;;
74679;SDS011;63211;48.548;2.704;2022-12-18T14:38:09;3.90;;;1.55;;
74679;SDS011;63211;48.548;2.704;2022-12-18T14:40:51;3.53;;;1.60;;
74679;SDS011;63211;48.548;2.704;2022-12-18T14:43:18;4.43;;;1.65;;
74679;SDS011;63211;48.548;2.704;2022-12-18T14:45:47;3.25;;;1.50;;
74679;SDS011;63211;48.548;2.704;2022-12-18T14:48:16;3.78;;;2.10;;
74679;SDS011;63211;48.548;2.704;2022-12-18T14:50:44;5.55;;;2.03;;
74679;SDS011;63211;48.548;2.704;2022-12-18T14:53:20;3.90;;;1.70;;
74679;SDS011;63211;48.548;2.704;2022-12-18T14:55:49;6.38;;;1.65;;
74679;SDS011;63211;48.548;2.704;2022-12-18T14:58:16;5.72;;;2.17;;
74679;SDS011;63211;48.548;2.704;2022-12-18T15:00:44;4.68;;;1.80;;
74679;SDS011;63211;48.548;2.704;2022-12-18T15:03:13;7.38;;;1.98;;
74679;SDS011;63211;48.548;2.704;2022-12-18T15:05:46;4.25;;;1.65;;
74679;SDS011;63211;48.548;2.704;2022-12-18T15:08:27;5.03;;;2.03;;
74679;SDS011;63211;48.548;2.704;2022-12-18T15:10:57;3.78;;;1.75;;
74679;SDS011;63211;48.548;2.704;2022-12-18T15:13:23;4.60;;;1.75;;
74679;SDS011;63211;48.548;2.704;2022-12-18T15:15:51;3.42;;;1.60;;